createdAt,value
2019-04-04T00:02:17.091Z,5.50
2019-04-04T00:04:47.129Z,5.50
2019-04-04T00:07:17.302Z,5.50
2019-04-04T00:09:48.130Z,5.50
2019-04-04T00:12:18.232Z,5.50
2019-04-04T00:14:48.231Z,5.40
2019-04-04T00:17:18.503Z,5.40
2019-04-04T00:19:49.765Z,5.40
2019-04-04T00:22:19.713Z,5.40
2019-04-04T00:24:49.598Z,5.30
2019-04-04T00:27:19.771Z,5.30
2019-04-04T00:29:50.481Z,5.30
2019-04-04T00:32:20.965Z,5.20
2019-04-04T00:34:51.632Z,5.20
2019-04-04T00:37:21.938Z,5.20
2019-04-04T00:39:52.240Z,5.20
2019-04-04T00:42:22.660Z,5.20
2019-04-04T00:44:53.876Z,5.10
2019-04-04T00:47:24.816Z,5.10
2019-04-04T00:49:54.915Z,5.10
2019-04-04T00:52:28.235Z,5.10
2019-04-04T00:54:58.321Z,5.10
2019-04-04T00:57:28.595Z,5.10
2019-04-04T00:59:58.577Z,5.10
2019-04-04T01:02:28.545Z,5.10
2019-04-04T01:05:01.314Z,5.10
2019-04-04T01:07:30.593Z,5.10
2019-04-04T01:10:20.106Z,5.10
2019-04-04T01:12:51.999Z,5.10
2019-04-04T01:15:21.921Z,5.20
2019-04-04T01:17:52.256Z,5.20
2019-04-04T01:20:22.632Z,5.20
2019-04-04T01:22:54.035Z,5.20
2019-04-04T01:25:26.869Z,5.20
2019-04-04T01:27:56.836Z,5.20
2019-04-04T01:30:27.563Z,5.20
2019-04-04T01:32:57.685Z,5.20
2019-04-04T01:35:27.710Z,5.20
2019-04-04T01:37:58.233Z,5.20
2019-04-04T01:40:32.870Z,5.20
2019-04-04T01:43:01.332Z,5.20
2019-04-04T01:45:31.379Z,5.20
2019-04-04T01:48:01.911Z,5.20
2019-04-04T01:50:32.780Z,5.20
2019-04-04T01:53:03.185Z,5.10
2019-04-04T01:55:35.036Z,5.10
2019-04-04T01:58:05.468Z,5.10
2019-04-04T02:00:35.653Z,5.10
2019-04-04T02:03:05.758Z,5.10
2019-04-04T02:05:35.993Z,5.10
2019-04-04T02:08:06.178Z,5.10
2019-04-04T02:10:36.234Z,5.00
2019-04-04T02:13:09.549Z,5.00
2019-04-04T02:15:38.182Z,5.00
2019-04-04T02:18:08.451Z,5.00
2019-04-04T02:20:38.421Z,5.10
2019-04-04T02:23:08.511Z,5.10
2019-04-04T02:25:38.475Z,5.20
2019-04-04T02:28:08.954Z,5.20
2019-04-04T02:30:40.150Z,5.20
2019-04-04T02:33:10.291Z,5.10
2019-04-04T02:35:42.762Z,5.10
2019-04-04T02:38:11.987Z,5.10
2019-04-04T02:40:42.341Z,5.10
2019-04-04T02:43:12.753Z,5.20
2019-04-04T02:45:42.813Z,5.20
2019-04-04T02:48:12.846Z,5.20
2019-04-04T02:50:43.102Z,5.30
2019-04-04T02:53:13.639Z,5.30
2019-04-04T02:55:44.129Z,5.40
2019-04-04T02:58:15.247Z,5.40
2019-04-04T03:00:45.441Z,5.40
2019-04-04T03:03:16.097Z,5.40
2019-04-04T03:05:50.785Z,5.40
2019-04-04T03:08:18.481Z,5.40
2019-04-04T03:10:49.478Z,5.40
2019-04-04T03:13:19.679Z,5.40
2019-04-04T03:15:49.776Z,5.60
2019-04-04T03:18:20.094Z,5.60
2019-04-04T03:20:50.724Z,5.60
2019-04-04T03:23:21.466Z,5.70
2019-04-04T03:25:51.667Z,5.60
2019-04-04T03:28:21.652Z,5.60
2019-04-04T03:31:01.890Z,5.60
2019-04-04T03:33:31.279Z,5.60
2019-04-04T03:36:00.988Z,5.60
2019-04-04T03:38:30.328Z,5.60
2019-04-04T03:41:00.578Z,5.60
2019-04-04T03:43:30.806Z,5.60
2019-04-04T03:46:01.733Z,5.60
2019-04-04T03:48:31.960Z,5.50
2019-04-04T03:51:04.720Z,5.50
2019-04-04T03:53:34.155Z,5.50
2019-04-04T03:56:04.480Z,5.50
2019-04-04T03:58:34.465Z,5.40
2019-04-04T04:01:05.125Z,5.30
2019-04-04T04:03:35.204Z,5.30
2019-04-04T04:06:08.415Z,5.30
2019-04-04T04:08:36.940Z,5.30
2019-04-04T04:11:08.508Z,5.30
2019-04-04T04:13:38.818Z,5.30
2019-04-04T04:16:10.457Z,5.30
2019-04-04T04:18:41.000Z,5.50
2019-04-04T04:21:11.434Z,5.50
2019-04-04T04:23:41.596Z,5.60
2019-04-04T04:26:12.306Z,5.50
2019-04-04T04:28:43.308Z,5.60
2019-04-04T04:31:15.342Z,5.50
2019-04-04T04:33:45.612Z,5.60
2019-04-04T04:36:16.422Z,5.60
2019-04-04T04:38:47.460Z,5.60
2019-04-04T04:41:20.462Z,5.50
2019-04-04T04:43:49.663Z,5.50
2019-04-04T04:46:19.732Z,5.50
2019-04-04T04:48:49.678Z,5.50
2019-04-04T04:51:19.973Z,5.50
2019-04-04T04:53:50.654Z,5.40
2019-04-04T04:56:21.285Z,5.50
2019-04-04T04:58:51.206Z,5.50
2019-04-04T05:01:21.248Z,5.50
2019-04-04T05:03:51.150Z,5.60
2019-04-04T05:06:21.565Z,5.70
2019-04-04T05:08:51.850Z,5.70
2019-04-04T05:11:22.211Z,5.70
2019-04-04T05:13:52.966Z,5.70
2019-04-04T05:16:22.946Z,5.60
2019-04-04T05:18:53.389Z,5.60
2019-04-04T05:21:25.647Z,5.60
2019-04-04T05:23:55.524Z,5.50
2019-04-04T05:26:25.826Z,5.50
2019-04-04T05:28:57.185Z,5.60
2019-04-04T05:31:27.758Z,5.60
2019-04-04T05:33:59.056Z,5.60
2019-04-04T05:36:30.120Z,5.50
2019-04-04T05:39:00.202Z,5.50
2019-04-04T05:41:30.488Z,5.60
2019-04-04T05:44:00.801Z,5.60
2019-04-04T05:46:30.900Z,5.70
2019-04-04T05:49:07.549Z,5.70
2019-04-04T05:51:36.045Z,5.80
2019-04-04T05:54:09.404Z,5.90
2019-04-04T05:56:39.716Z,6.00
2019-04-04T05:59:10.063Z,6.10
2019-04-04T06:01:40.345Z,6.20
2019-04-04T06:04:11.901Z,6.30
2019-04-04T06:06:42.318Z,6.30
2019-04-04T06:09:14.700Z,6.40
2019-04-04T06:11:48.515Z,6.40
2019-04-04T06:14:20.491Z,6.40
2019-04-04T06:16:49.712Z,6.50
2019-04-04T06:19:19.806Z,6.50
2019-04-04T06:21:50.559Z,6.50
2019-04-04T06:24:20.481Z,6.60
2019-04-04T06:26:51.436Z,6.60
2019-04-04T06:29:21.530Z,6.60
2019-04-04T06:31:51.419Z,6.60
2019-04-04T06:34:23.956Z,6.60
2019-04-04T06:36:53.049Z,6.60
2019-04-04T06:39:25.119Z,6.60
2019-04-04T06:41:54.961Z,6.60
2019-04-04T06:44:25.098Z,6.70
2019-04-04T06:46:55.608Z,6.70
2019-04-04T06:49:28.650Z,6.70
2019-04-04T06:51:57.547Z,6.80
2019-04-04T06:54:28.129Z,6.90
2019-04-04T06:56:59.239Z,6.90
2019-04-04T06:59:30.325Z,7.00
2019-04-04T07:02:00.794Z,7.10
2019-04-04T07:04:35.784Z,7.10
2019-04-04T07:07:04.294Z,7.20
2019-04-04T07:09:37.158Z,7.30
2019-04-04T07:12:07.094Z,7.50
2019-04-04T07:14:45.510Z,7.60
2019-04-04T07:17:09.561Z,7.60
2019-04-04T07:19:39.526Z,7.60
2019-04-04T07:22:09.411Z,7.50
2019-04-04T07:24:39.486Z,7.40
2019-04-04T07:27:09.704Z,7.40
2019-04-04T07:29:39.725Z,7.40
2019-04-04T07:32:10.214Z,7.40
2019-04-04T07:34:40.293Z,7.40
2019-04-04T07:37:10.685Z,7.40
2019-04-04T07:39:40.643Z,7.40
2019-04-04T07:42:15.476Z,7.30
2019-04-04T07:44:44.682Z,7.30
2019-04-04T07:47:16.153Z,7.20
2019-04-04T07:49:46.636Z,7.30
2019-04-04T07:52:17.349Z,7.20
2019-04-04T07:54:48.194Z,7.20
2019-04-04T07:57:19.745Z,7.20
2019-04-04T07:59:50.483Z,7.20
2019-04-04T08:02:20.551Z,7.20
2019-04-04T08:04:51.171Z,7.20
2019-04-04T08:07:21.091Z,7.20
2019-04-04T08:09:51.193Z,7.20
2019-04-04T08:12:21.276Z,7.20
2019-04-04T08:14:51.343Z,7.20
2019-04-04T08:17:21.646Z,7.20
2019-04-04T08:19:59.630Z,7.20
2019-04-04T08:22:23.355Z,7.30
2019-04-04T08:24:53.468Z,7.30
2019-04-04T08:27:23.879Z,7.30
2019-04-04T08:29:53.981Z,7.30
2019-04-04T08:32:24.260Z,7.40
2019-04-04T08:34:54.258Z,7.50
2019-04-04T08:37:24.721Z,7.60
2019-04-04T08:39:55.400Z,7.60
2019-04-04T08:42:25.312Z,7.70
2019-04-04T08:44:55.585Z,7.80
2019-04-04T08:47:25.900Z,7.90
2019-04-04T08:49:56.140Z,7.90
2019-04-04T08:52:26.100Z,8.00
2019-04-04T08:54:56.465Z,8.10
2019-04-04T08:57:26.811Z,8.10
2019-04-04T08:59:57.379Z,8.20
2019-04-04T09:02:27.360Z,8.20
2019-04-04T09:04:57.283Z,8.30
2019-04-04T09:07:27.188Z,8.40
2019-04-04T09:09:57.152Z,8.50
2019-04-04T09:12:27.673Z,8.50
2019-04-04T09:14:57.686Z,8.50
2019-04-04T09:17:27.673Z,8.60
2019-04-04T09:19:58.047Z,8.60
2019-04-04T09:22:29.770Z,8.50
2019-04-04T09:25:01.361Z,8.50
2019-04-04T09:27:31.909Z,8.40
2019-04-04T09:30:01.959Z,8.40
2019-04-04T09:32:32.221Z,8.30
2019-04-04T09:35:02.224Z,8.30
2019-04-04T09:37:32.212Z,8.20
2019-04-04T09:40:02.340Z,8.20
2019-04-04T09:42:32.343Z,8.20
2019-04-04T09:45:02.269Z,8.20
2019-04-04T09:47:32.308Z,8.20
2019-04-04T09:50:02.412Z,8.30
2019-04-04T09:52:32.575Z,8.50
2019-04-04T09:55:02.866Z,8.70
2019-04-04T09:57:33.059Z,8.90
2019-04-04T10:00:03.525Z,9.10
2019-04-04T10:02:33.708Z,9.10
2019-04-04T10:05:06.036Z,9.10
2019-04-04T10:07:35.814Z,9.00
2019-04-04T10:10:09.248Z,9.10
2019-04-04T10:12:39.236Z,9.10
2019-04-04T10:15:09.815Z,9.10
2019-04-04T10:17:39.799Z,9.10
2019-04-04T10:20:11.016Z,9.00
2019-04-04T10:22:41.453Z,9.10
2019-04-04T10:25:11.557Z,9.20
2019-04-04T10:27:41.968Z,9.30
2019-04-04T10:30:13.151Z,9.20
2019-04-04T10:32:43.105Z,9.20
2019-04-04T10:35:13.315Z,9.10
2019-04-04T10:37:43.238Z,9.00
2019-04-04T10:40:13.835Z,9.00
2019-04-04T10:42:43.799Z,8.90
2019-04-04T10:45:14.364Z,8.90
2019-04-04T10:47:44.245Z,9.00
2019-04-04T10:50:15.182Z,9.00
2019-04-04T10:52:45.704Z,9.00
2019-04-04T10:55:16.077Z,9.00
2019-04-04T10:57:46.313Z,9.00
2019-04-04T11:00:16.720Z,9.00
2019-04-04T11:02:46.682Z,9.00
2019-04-04T11:05:17.272Z,9.10
2019-04-04T11:07:47.179Z,9.20
2019-04-04T11:10:17.725Z,9.20
2019-04-04T11:12:49.561Z,9.20
2019-04-04T11:15:19.882Z,9.20
2019-04-04T11:17:50.218Z,9.20
2019-04-04T11:20:20.590Z,9.10
2019-04-04T11:22:51.072Z,8.90
2019-04-04T11:25:21.402Z,8.80
2019-04-04T11:27:51.573Z,8.70
2019-04-04T11:30:26.190Z,8.60
2019-04-04T11:32:56.995Z,8.50
2019-04-04T11:35:28.312Z,8.40
2019-04-04T11:37:58.509Z,8.30
2019-04-04T11:40:29.163Z,8.20
2019-04-04T11:42:59.170Z,8.30
2019-04-04T11:45:29.154Z,8.20
2019-04-04T11:47:59.237Z,8.10
2019-04-04T11:50:29.312Z,8.10
2019-04-04T11:53:00.995Z,7.90
2019-04-04T11:55:31.491Z,7.90
2019-04-04T11:58:01.486Z,7.90
2019-04-04T12:00:34.284Z,7.80
2019-04-04T12:03:04.443Z,7.80
2019-04-04T12:05:34.628Z,7.80
2019-04-04T12:08:04.862Z,7.70
2019-04-04T12:10:35.323Z,7.70
2019-04-04T12:13:05.447Z,7.70
2019-04-04T12:15:35.542Z,7.80
2019-04-04T12:18:05.586Z,7.80
2019-04-04T12:20:36.014Z,7.70
2019-04-04T12:23:06.039Z,7.80
2019-04-04T12:25:36.822Z,7.80
2019-04-04T12:28:06.944Z,7.90
2019-04-04T12:30:37.107Z,7.80
2019-04-04T12:33:07.426Z,7.70
2019-04-04T12:35:37.565Z,7.70
2019-04-04T12:38:07.706Z,7.70
2019-04-04T12:40:37.917Z,7.60
2019-04-04T12:43:07.927Z,7.60
2019-04-04T12:45:37.955Z,7.60
2019-04-04T12:48:09.250Z,7.50
2019-04-04T12:50:39.441Z,7.50
2019-04-04T12:53:10.106Z,7.50
2019-04-04T12:55:40.474Z,7.50
2019-04-04T12:58:12.295Z,7.50
2019-04-04T13:00:42.400Z,7.50
2019-04-04T13:03:12.686Z,7.50
2019-04-04T13:05:42.807Z,7.50
2019-04-04T13:08:13.460Z,7.40
2019-04-04T13:10:43.728Z,7.40
2019-04-04T13:13:13.836Z,7.40
2019-04-04T13:15:43.936Z,7.30
2019-04-04T13:18:13.912Z,7.30
2019-04-04T13:20:44.220Z,7.30
2019-04-04T13:23:14.430Z,7.30
2019-04-04T13:25:44.693Z,7.30
2019-04-04T13:28:14.575Z,7.40
2019-04-04T13:30:45.533Z,7.40
2019-04-04T13:33:15.665Z,7.30
2019-04-04T13:35:45.757Z,7.30
2019-04-04T13:38:15.990Z,7.30
2019-04-04T13:40:46.172Z,7.30
2019-04-04T13:43:16.907Z,7.30
2019-04-04T13:45:47.040Z,7.30
2019-04-04T13:48:17.053Z,7.30
2019-04-04T13:50:47.787Z,7.20
2019-04-04T13:53:20.763Z,7.20
2019-04-04T13:55:50.922Z,7.20
2019-04-04T13:58:22.190Z,7.20
2019-04-04T14:00:53.555Z,7.20
2019-04-04T14:03:23.563Z,7.20
2019-04-04T14:05:54.227Z,7.10
2019-04-04T14:08:25.786Z,7.10
2019-04-04T14:10:58.346Z,7.10
2019-04-04T14:13:27.702Z,7.10
2019-04-04T14:15:59.679Z,7.00
2019-04-04T14:18:39.394Z,7.00
2019-04-04T14:21:03.804Z,7.00
2019-04-04T14:23:34.021Z,7.10
2019-04-04T14:26:04.691Z,7.10
2019-04-04T14:28:34.903Z,7.10
2019-04-04T14:31:04.942Z,7.10
2019-04-04T14:33:34.916Z,7.10
2019-04-04T14:36:05.204Z,7.10
2019-04-04T14:38:35.418Z,7.10
2019-04-04T14:41:11.194Z,7.10
2019-04-04T14:43:37.094Z,7.10
2019-04-04T14:46:07.234Z,7.10
2019-04-04T14:48:38.147Z,7.00
2019-04-04T14:51:08.108Z,7.00
2019-04-04T14:53:38.139Z,7.00
2019-04-04T14:56:08.582Z,7.00
2019-04-04T14:58:38.621Z,7.00
2019-04-04T15:01:09.064Z,7.00
2019-04-04T15:03:41.892Z,7.00
2019-04-04T15:06:10.754Z,6.90
2019-04-04T15:08:41.084Z,6.90
2019-04-04T15:11:23.096Z,6.90
2019-04-04T15:13:42.676Z,6.90
2019-04-04T15:16:14.092Z,6.90
2019-04-04T15:18:44.162Z,6.90
2019-04-04T15:21:15.331Z,6.90
2019-04-04T15:23:45.306Z,6.90
2019-04-04T15:26:15.340Z,6.90
2019-04-04T15:28:45.319Z,7.00
2019-04-04T15:31:15.272Z,7.00
2019-04-04T15:33:45.303Z,7.00
2019-04-04T15:36:15.278Z,7.00
2019-04-04T15:38:46.909Z,7.00
2019-04-04T15:41:16.958Z,6.90
2019-04-04T15:43:46.962Z,6.90
2019-04-04T15:46:16.936Z,6.90
2019-04-04T15:48:49.857Z,6.90
2019-04-04T15:51:19.825Z,6.90
2019-04-04T15:53:49.841Z,6.80
2019-04-04T15:56:20.306Z,6.80
2019-04-04T15:58:50.371Z,6.80
2019-04-04T16:01:20.490Z,6.80
2019-04-04T16:03:50.518Z,6.80
2019-04-04T16:06:20.435Z,6.70
2019-04-04T16:08:50.914Z,6.70
2019-04-04T16:11:21.598Z,6.70
2019-04-04T16:13:51.954Z,6.70
2019-04-04T16:16:22.517Z,6.70
2019-04-04T16:18:53.150Z,6.70
2019-04-04T16:21:23.437Z,6.70
2019-04-04T16:23:53.620Z,6.70
2019-04-04T16:26:24.000Z,6.70
2019-04-04T16:28:54.031Z,6.70
2019-04-04T16:31:24.428Z,6.70
2019-04-04T16:33:54.670Z,6.70
2019-04-04T16:36:24.611Z,6.70
2019-04-04T16:38:54.674Z,6.60
2019-04-04T16:41:25.046Z,6.60
2019-04-04T16:43:55.037Z,6.60
2019-04-04T16:46:25.171Z,6.60
2019-04-04T16:48:55.420Z,6.50
2019-04-04T16:51:25.586Z,6.50
2019-04-04T16:53:55.760Z,6.50
2019-04-04T16:56:25.884Z,6.50
2019-04-04T16:58:56.336Z,6.50
2019-04-04T17:01:27.180Z,6.40
2019-04-04T17:04:01.922Z,6.40
2019-04-04T17:06:28.824Z,6.40
2019-04-04T17:08:58.769Z,6.50
2019-04-04T17:11:29.422Z,6.50
2019-04-04T17:13:59.614Z,6.50
2019-04-04T17:16:29.714Z,6.50
2019-04-04T17:19:00.075Z,6.40
2019-04-04T17:21:30.206Z,6.50
2019-04-04T17:24:01.407Z,6.40
2019-04-04T17:26:31.821Z,6.40
2019-04-04T17:29:02.237Z,6.40
2019-04-04T17:31:33.023Z,6.40
2019-04-04T17:34:03.589Z,6.40
2019-04-04T17:36:34.042Z,6.40
2019-04-04T17:39:06.408Z,6.40
2019-04-04T17:41:37.075Z,6.30
2019-04-04T17:44:07.616Z,6.30
2019-04-04T17:46:37.997Z,6.30
2019-04-04T17:49:09.134Z,6.20
2019-04-04T17:51:39.313Z,6.20
2019-04-04T17:54:09.724Z,6.20
2019-04-04T17:56:40.184Z,6.20
2019-04-04T17:59:10.754Z,6.10
2019-04-04T18:01:41.019Z,6.10
2019-04-04T18:04:11.143Z,6.10
2019-04-04T18:06:41.213Z,6.10
2019-04-04T18:09:11.192Z,6.10
2019-04-04T18:11:42.962Z,6.10
2019-04-04T18:14:13.354Z,6.10
2019-04-04T18:16:43.407Z,6.10
2019-04-04T18:19:13.479Z,6.10
2019-04-04T18:21:43.481Z,6.10
2019-04-04T18:24:15.591Z,6.10
2019-04-04T18:26:45.960Z,6.10
2019-04-04T18:29:15.837Z,6.10
2019-04-04T18:31:48.240Z,6.00
2019-04-04T18:34:18.258Z,6.00
2019-04-04T18:36:48.530Z,6.00
2019-04-04T18:39:18.733Z,6.00
2019-04-04T18:41:49.620Z,6.00
2019-04-04T18:44:19.960Z,6.00
2019-04-04T18:46:52.617Z,6.00
2019-04-04T18:49:22.641Z,5.90
2019-04-04T18:51:52.756Z,5.90
2019-04-04T18:54:22.616Z,5.90
2019-04-04T18:56:52.609Z,5.90
2019-04-04T18:59:22.493Z,5.80
2019-04-04T19:01:52.403Z,5.80
2019-04-04T19:04:22.815Z,5.80
2019-04-04T19:06:53.079Z,5.80
2019-04-04T19:09:23.240Z,5.80
2019-04-04T19:11:53.561Z,5.80
2019-04-04T19:14:23.569Z,5.80
2019-04-04T19:16:53.536Z,5.80
2019-04-04T19:19:24.136Z,5.80
2019-04-04T19:21:54.525Z,5.80
2019-04-04T19:24:24.790Z,5.70
2019-04-04T19:26:55.024Z,5.70
2019-04-04T19:29:25.386Z,5.70
2019-04-04T19:31:55.593Z,5.70
2019-04-04T19:34:25.816Z,5.70
2019-04-04T19:36:56.347Z,5.70
2019-04-04T19:39:26.660Z,5.70
2019-04-04T19:41:56.697Z,5.70
2019-04-04T19:44:26.765Z,5.70
2019-04-04T19:46:56.807Z,5.70
2019-04-04T19:49:27.069Z,5.70
2019-04-04T19:51:57.430Z,5.70
2019-04-04T19:54:27.612Z,5.70
2019-04-04T19:56:57.724Z,5.70
2019-04-04T19:59:30.055Z,5.70
2019-04-04T20:02:00.670Z,5.70
2019-04-04T20:04:30.760Z,5.70
2019-04-04T20:07:03.531Z,5.70
2019-04-04T20:09:32.610Z,5.70
2019-04-04T20:12:04.505Z,5.70
2019-04-04T20:14:34.739Z,5.70
2019-04-04T20:17:04.899Z,5.70
2019-04-04T20:19:35.172Z,5.70
2019-04-04T20:22:05.408Z,5.70
2019-04-04T20:24:35.371Z,5.70
2019-04-04T20:27:05.823Z,5.70
2019-04-04T20:29:35.890Z,5.70
2019-04-04T20:32:06.056Z,5.60
2019-04-04T20:34:36.184Z,5.70
2019-04-04T20:37:06.193Z,5.70
2019-04-04T20:39:36.688Z,5.70
2019-04-04T20:42:06.674Z,5.60
2019-04-04T20:44:36.773Z,5.60
2019-04-04T20:47:07.043Z,5.60
2019-04-04T20:49:37.506Z,5.60
2019-04-04T20:52:07.454Z,5.60
2019-04-04T20:54:37.955Z,5.60
2019-04-04T20:57:08.413Z,5.60
2019-04-04T20:59:38.311Z,5.60
2019-04-04T21:02:08.692Z,5.60
2019-04-04T21:04:39.111Z,5.60
2019-04-04T21:07:09.106Z,5.60
2019-04-04T21:09:39.590Z,5.70
2019-04-04T21:12:11.361Z,5.60
2019-04-04T21:14:41.957Z,5.60
2019-04-04T21:17:13.579Z,5.60
2019-04-04T21:19:43.458Z,5.60
2019-04-04T21:22:26.581Z,5.60
2019-04-04T21:24:45.061Z,5.60
2019-04-04T21:27:15.001Z,5.60
2019-04-04T21:29:44.992Z,5.60
2019-04-04T21:32:14.933Z,5.60
2019-04-04T21:34:44.801Z,5.70
2019-04-04T21:37:14.939Z,5.60
2019-04-04T21:39:44.878Z,5.60
2019-04-04T21:42:15.150Z,5.60
2019-04-04T21:44:45.173Z,5.50
2019-04-04T21:47:15.795Z,5.50
2019-04-04T21:49:45.768Z,5.50
2019-04-04T21:52:15.987Z,5.40
2019-04-04T21:54:46.191Z,5.40
2019-04-04T21:57:16.321Z,5.40
2019-04-04T21:59:49.468Z,5.40
2019-04-04T22:02:19.602Z,5.40
2019-04-04T22:04:49.772Z,5.40
2019-04-04T22:07:20.997Z,5.40
2019-04-04T22:09:51.953Z,5.40
2019-04-04T22:12:22.638Z,5.40
2019-04-04T22:14:52.901Z,5.40
2019-04-04T22:17:22.991Z,5.40
2019-04-04T22:19:52.881Z,5.40
2019-04-04T22:22:22.939Z,5.40
2019-04-04T22:24:53.620Z,5.40
2019-04-04T22:27:23.595Z,5.40
2019-04-04T22:29:53.595Z,5.40
2019-04-04T22:32:23.606Z,5.40
2019-04-04T22:34:53.588Z,5.30
2019-04-04T22:37:23.767Z,5.30
2019-04-04T22:39:53.715Z,5.40
2019-04-04T22:42:23.680Z,5.40
2019-04-04T22:44:53.891Z,5.40
2019-04-04T22:47:24.235Z,5.40
2019-04-04T22:49:54.698Z,5.40
2019-04-04T22:52:25.425Z,5.50
2019-04-04T22:54:55.729Z,5.50
2019-04-04T22:57:25.746Z,5.50
2019-04-04T22:59:56.009Z,5.50
2019-04-04T23:02:26.095Z,5.40
2019-04-04T23:04:56.067Z,5.40
2019-04-04T23:07:26.005Z,5.40
2019-04-04T23:09:56.321Z,5.40
2019-04-04T23:12:26.366Z,5.40
2019-04-04T23:14:56.666Z,5.40
2019-04-04T23:17:26.673Z,5.40
2019-04-04T23:19:56.908Z,5.40
2019-04-04T23:22:26.751Z,5.40
2019-04-04T23:24:56.674Z,5.40
2019-04-04T23:27:26.589Z,5.40
2019-04-04T23:29:56.444Z,5.40
2019-04-04T23:32:26.684Z,5.40
2019-04-04T23:34:56.586Z,5.50
2019-04-04T23:37:26.509Z,5.50
2019-04-04T23:39:56.398Z,5.50
2019-04-04T23:42:26.434Z,5.50
2019-04-04T23:45:01.206Z,5.50
2019-04-04T23:47:28.193Z,5.50
2019-04-04T23:49:58.334Z,5.50
2019-04-04T23:52:28.336Z,5.50
2019-04-04T23:54:59.869Z,5.40
2019-04-04T23:57:29.858Z,5.40
2019-04-04T23:59:59.763Z,5.40
